Time;durP1;ratioP1;P1;durP2;ratioP2;P2;SDS_P1;SDS_P2;PMS_P1;PMS_P2;Temp;Humidity;BMP_temperature;BMP_pressure;BME280_temperature;BME280_humidity;BME280_pressure;Samples;Min_cycle;Max_cycle;Signal;HPM_P1;HPM_P2
2022/06/25 00:00:27;;;;;;;;;2.00;2.00;;;;;20.73;67.00;99022.44;4825843;29;45494;-61
2022/06/25 00:02:52;;;;;;;;;3.75;3.00;;;;;20.73;67.19;99033.16;4825931;29;46154;-61
2022/06/25 00:05:27;;;;;;;;;2.00;2.00;;;;;20.72;67.41;99027.94;4826028;29;45417;-61
2022/06/25 00:07:52;;;;;;;;;4.00;4.00;;;;;20.69;67.90;99023.66;4825992;29;45496;-61
2022/06/25 00:10:18;;;;;;;;;3.25;3.25;;;;;20.66;67.72;99023.91;4825708;29;45485;-61
2022/06/25 00:12:43;;;;;;;;;1.00;1.00;;;;;20.65;67.54;99018.69;4825786;29;45937;-61
2022/06/25 00:15:09;;;;;;;;;1.00;1.00;;;;;20.62;67.76;99014.44;4826025;29;45440;-62
2022/06/25 00:17:35;;;;;;;;;1.75;1.75;;;;;20.58;67.76;99017.50;4825800;29;45421;-61
2022/06/25 00:20:01;;;;;;;;;3.00;3.00;;;;;20.52;67.66;99016.19;4825902;29;45529;-61
2022/06/25 00:22:26;;;;;;;;;1.00;1.00;;;;;20.46;67.89;99017.53;4825466;29;46279;-61
2022/06/25 00:24:52;;;;;;;;;1.00;1.00;;;;;20.41;67.77;99021.56;4825623;29;45341;-61
2022/06/25 00:27:18;;;;;;;;;2.50;2.00;;;;;20.36;68.36;99023.75;4825635;29;45489;-61
2022/06/25 00:29:43;;;;;;;;;1.00;1.00;;;;;20.32;68.94;99027.63;4825714;29;45445;-61
2022/06/25 00:32:09;;;;;;;;;2.00;2.00;;;;;20.27;68.65;99033.38;4825741;29;45383;-61
2022/06/25 00:34:36;;;;;;;;;2.00;2.00;;;;;20.24;69.22;99036.31;4825670;29;45403;-61
2022/06/25 00:37:02;;;;;;;;;2.40;2.40;;;;;20.21;69.63;99028.53;4825574;29;45385;-61
2022/06/25 00:39:27;;;;;;;;;2.00;2.00;;;;;20.20;70.39;99032.16;4825700;29;45385;-61
2022/06/25 00:41:53;;;;;;;;;2.00;2.00;;;;;20.16;70.65;99031.56;4825281;29;46161;-61
2022/06/25 00:44:18;;;;;;;;;2.00;2.00;;;;;20.15;70.03;99029.84;4825545;29;45359;-61
2022/06/25 00:46:47;;;;;;;;;2.00;2.00;;;;;20.13;70.69;99030.94;4825742;29;45472;-61
2022/06/25 00:49:13;;;;;;;;;2.00;2.00;;;;;20.09;70.42;99021.50;4825318;29;45479;-62
2022/06/25 00:51:40;;;;;;;;;1.00;1.00;;;;;20.07;70.50;99032.31;4825115;29;45344;-61
2022/06/25 00:54:09;;;;;;;;;3.20;3.20;;;;;20.07;70.21;99023.44;4825226;29;45507;-61
2022/06/25 00:56:38;;;;;;;;;3.25;2.75;;;;;20.06;70.45;99021.72;4823301;29;45507;-61
2022/06/25 00:59:05;;;;;;;;;2.00;2.00;;;;;20.05;70.75;99022.69;4824917;29;45567;-61
2022/06/25 01:01:35;;;;;;;;;2.60;2.60;;;;;20.02;70.58;99026.47;4824739;29;47018;-61
2022/06/25 01:04:00;;;;;;;;;1.80;1.80;;;;;19.98;70.78;99033.03;4825080;29;45432;-61
2022/06/25 01:06:28;;;;;;;;;5.00;3.00;;;;;19.97;70.66;99025.97;4825107;29;45431;-61
2022/06/25 01:08:54;;;;;;;;;2.60;2.60;;;;;19.97;70.81;99025.97;4825157;29;45426;-61
2022/06/25 01:11:20;;;;;;;;;4.40;2.00;;;;;19.97;70.85;99033.16;4812866;29;46293;-61
2022/06/25 01:13:45;;;;;;;;;3.00;3.00;;;;;19.94;71.18;99026.22;4825143;29;45376;-61
2022/06/25 01:16:11;;;;;;;;;3.00;2.00;;;;;19.91;70.84;99025.63;4825321;29;45667;-61
2022/06/25 01:18:36;;;;;;;;;3.25;3.25;;;;;19.90;71.21;99026.63;4825016;29;45462;-61
2022/06/25 01:21:01;;;;;;;;;2.00;1.25;;;;;19.88;71.66;99025.88;4812799;29;45674;-61
2022/06/25 01:23:27;;;;;;;;;2.00;2.00;;;;;19.85;71.65;99030.50;4824653;29;45442;-61
2022/06/25 01:25:52;;;;;;;;;2.00;2.00;;;;;19.82;71.41;99029.88;4824599;29;45376;-61
2022/06/25 01:28:18;;;;;;;;;3.75;2.25;;;;;19.80;71.58;99016.63;4807686;29;45411;-58
2022/06/25 01:30:44;;;;;;;;;3.00;3.00;;;;;19.77;71.80;99018.72;4824744;29;46263;-58
2022/06/25 01:33:09;;;;;;;;;2.00;2.00;;;;;19.72;71.81;99020.91;4824711;29;45455;-58
2022/06/25 01:35:35;;;;;;;;;2.00;2.00;;;;;19.68;72.22;99020.28;4825219;29;45356;-58
2022/06/25 01:38:01;;;;;;;;;3.00;2.75;;;;;19.65;72.30;99017.84;4824714;29;45380;-58
2022/06/25 01:40:27;;;;;;;;;3.80;2.60;;;;;19.64;72.40;99015.28;4824177;29;46168;-58
2022/06/25 01:43:00;;;;;;;;;2.25;2.25;;;;;19.62;72.60;99019.91;4824741;29;45422;-58
2022/06/25 01:45:34;;;;;;;;;3.40;2.20;;;;;19.60;72.30;99020.06;4824582;29;45434;-58
2022/06/25 01:48:01;;;;;;;;;2.40;2.40;;;;;19.58;72.55;99005.94;4823927;29;45561;-58
2022/06/25 01:50:26;;;;;;;;;2.20;2.20;;;;;19.56;72.61;99001.69;4824717;29;45465;-58
2022/06/25 01:52:52;;;;;;;;;2.00;2.00;;;;;19.51;72.62;98999.38;4824527;29;45432;-59
2022/06/25 01:55:18;;;;;;;;;2.00;2.00;;;;;19.47;72.86;98998.72;4824471;29;45349;-58
2022/06/25 01:57:44;;;;;;;;;5.20;2.00;;;;;19.45;72.81;99006.00;4824343;29;45215;-58
2022/06/25 02:00:13;;;;;;;;;3.00;2.00;;;;;19.45;72.99;99005.16;4824281;29;45984;-58
2022/06/25 02:02:41;;;;;;;;;3.00;3.00;;;;;19.44;72.82;99003.44;4824239;29;45495;-58
2022/06/25 02:05:08;;;;;;;;;1.60;1.60;;;;;19.42;72.92;99006.25;4824734;29;45408;-58
2022/06/25 02:07:33;;;;;;;;;3.00;2.00;;;;;19.42;73.24;99011.63;4824120;29;45499;-58
2022/06/25 02:09:59;;;;;;;;;2.00;2.00;;;;;19.40;72.69;98994.84;4824086;29;45719;-58
2022/06/25 02:12:24;;;;;;;;;2.00;2.00;;;;;19.41;72.99;99001.03;4824255;29;45383;-58
2022/06/25 02:14:50;;;;;;;;;2.75;2.75;;;;;19.41;73.51;98995.69;4824316;29;45373;-58
2022/06/25 02:17:15;;;;;;;;;2.00;2.00;;;;;19.39;73.11;98997.63;4823869;29;45664;-58
2022/06/25 02:19:41;;;;;;;;;4.00;2.50;;;;;19.39;73.27;99002.97;4823688;29;45633;-58
2022/06/25 02:22:07;;;;;;;;;2.80;2.80;;;;;19.38;73.13;99001.25;4823925;29;45485;-58
2022/06/25 02:24:32;;;;;;;;;2.00;2.00;;;;;19.38;73.57;98999.44;4824254;29;45432;-58
2022/06/25 02:26:58;;;;;;;;;2.00;2.00;;;;;19.39;73.46;98997.63;4823820;29;45320;-58
2022/06/25 02:29:24;;;;;;;;;2.75;2.25;;;;;19.38;73.34;98991.44;4822925;29;46935;-58
2022/06/25 02:31:49;;;;;;;;;2.25;2.00;;;;;19.39;73.52;99005.66;4807425;29;45516;-58
2022/06/25 02:34:15;;;;;;;;;2.50;2.50;;;;;19.38;73.70;99004.78;4824542;29;45466;-58
2022/06/25 02:36:40;;;;;;;;;2.50;2.00;;;;;19.38;73.51;98995.91;4823954;29;45437;-58
2022/06/25 02:39:06;;;;;;;;;4.00;3.00;;;;;19.36;74.11;98993.38;4824033;29;46321;-58
2022/06/25 02:41:31;;;;;;;;;3.00;2.50;;;;;19.35;73.88;98996.16;4823731;29;45420;-58
2022/06/25 02:43:56;;;;;;;;;3.00;3.00;;;;;19.32;73.74;98994.56;4824173;29;45446;-58
2022/06/25 02:46:22;;;;;;;;;2.50;2.25;;;;;19.29;73.86;98996.63;4823894;29;45392;-58
2022/06/25 02:48:47;;;;;;;;;1.00;1.00;;;;;19.26;74.07;98996.88;4807267;29;47320;-58
2022/06/25 02:51:12;;;;;;;;;2.00;2.00;;;;;19.23;74.69;99000.63;4823888;29;45720;-58
2022/06/25 02:53:38;;;;;;;;;3.00;3.00;;;;;19.18;74.60;98998.31;4824021;29;45468;-58
2022/06/25 02:58:54;;;;;;;;;2.00;2.00;;;;;19.13;74.63;98999.63;4823489;29;45873;-58
2022/06/25 03:01:20;;;;;;;;;7.60;6.80;;;;;19.09;74.85;99000.84;4823618;29;45424;-58
2022/06/25 03:03:46;;;;;;;;;6.50;6.00;;;;;19.05;75.17;98996.72;4823991;29;45347;-58
2022/06/25 03:06:11;;;;;;;;;4.75;4.75;;;;;19.02;75.22;98995.13;4823627;29;45384;-58
2022/06/25 03:08:37;;;;;;;;;4.75;4.75;;;;;19.01;75.47;98996.09;4806717;29;48427;-58
2022/06/25 03:11:02;;;;;;;;;2.00;2.00;;;;;19.00;75.34;98996.19;4806534;29;45455;-58
2022/06/25 03:13:29;;;;;;;;;2.50;2.50;;;;;18.98;75.49;98982.97;4823775;29;45312;-58
2022/06/25 03:15:55;;;;;;;;;2.00;1.80;;;;;18.94;75.34;98992.16;4823526;29;45422;-58
2022/06/25 03:18:20;;;;;;;;;3.50;3.00;;;;;18.93;75.17;98994.97;4823453;29;45545;-58
2022/06/25 03:20:45;;;;;;;;;3.50;3.50;;;;;18.91;75.25;98992.44;4823064;29;45195;-58
2022/06/25 03:23:11;;;;;;;;;2.00;2.00;;;;;18.91;75.33;98989.75;4823409;29;45372;-58
2022/06/25 03:25:36;;;;;;;;;3.00;3.00;;;;;18.91;75.58;98987.09;4822728;29;45385;-58
2022/06/25 03:28:02;;;;;;;;;4.00;4.00;;;;;18.90;75.48;98987.19;4823156;29;46345;-58
2022/06/25 03:30:27;;;;;;;;;4.75;4.00;;;;;18.88;76.05;98986.47;4823454;29;45308;-58
2022/06/25 03:32:52;;;;;;;;;4.25;3.50;;;;;18.88;75.49;98981.13;4825179;29;45684;-58
2022/06/25 03:35:18;;;;;;;;;6.25;6.25;;;;;18.87;76.00;98988.28;4826454;29;45563;-58
2022/06/25 03:37:43;;;;;;;;;7.50;7.25;;;;;18.84;76.07;98985.84;4826187;29;45487;-58
2022/06/25 03:40:10;;;;;;;;;11.00;10.00;;;;;18.82;76.01;98979.75;4826128;29;45518;-58
2022/06/25 03:42:35;;;;;;;;;18.50;16.00;;;;;18.81;75.73;98973.56;4826573;29;45506;-58
2022/06/25 03:45:00;;;;;;;;;15.75;11.50;;;;;18.79;75.92;98971.97;4826518;29;45416;-58
2022/06/25 03:47:26;;;;;;;;;54.67;43.00;;;;;18.78;76.00;98983.63;4809609;29;47320;-59
2022/06/25 03:49:52;;;;;;;;;46.33;38.33;;;;;18.78;76.28;98986.28;4825821;29;45367;-58
2022/06/25 03:52:17;;;;;;;;;26.00;24.25;;;;;18.78;76.10;98988.97;4825980;29;45446;-58
2022/06/25 03:54:43;;;;;;;;;12.25;12.25;;;;;18.77;76.26;98989.94;4825595;29;45500;-58
2022/06/25 03:57:08;;;;;;;;;15.50;12.50;;;;;18.77;76.49;98990.78;4826395;29;45415;-58
2022/06/25 03:59:33;;;;;;;;;17.75;16.50;;;;;18.79;76.60;98986.19;4825939;29;45400;-58
2022/06/25 04:01:59;;;;;;;;;15.25;12.25;;;;;18.80;76.37;98989.69;4825987;29;45839;-58
2022/06/25 04:04:24;;;;;;;;;9.00;8.00;;;;;18.78;76.70;98995.16;4826155;29;45471;-58
2022/06/25 04:06:50;;;;;;;;;6.00;5.25;;;;;18.77;77.04;98995.28;4826368;29;45444;-58
2022/06/25 04:09:15;;;;;;;;;4.50;4.00;;;;;18.75;77.02;98998.09;4825978;29;45373;-58
2022/06/25 04:11:40;;;;;;;;;6.25;5.50;;;;;18.71;77.14;99004.63;4825727;29;45377;-58
2022/06/25 04:14:06;;;;;;;;;4.50;4.00;;;;;18.68;77.32;98994.16;4825672;29;45301;-58
2022/06/25 04:16:32;;;;;;;;;4.50;2.75;;;;;18.67;77.32;99000.47;4826036;29;46409;-58
2022/06/25 04:18:58;;;;;;;;;3.00;3.00;;;;;18.68;77.09;98999.50;4825785;29;45331;-58
2022/06/25 04:21:23;;;;;;;;;3.50;3.00;;;;;18.69;76.62;98995.00;4826313;29;45298;-58
2022/06/25 04:23:49;;;;;;;;;3.00;3.00;;;;;18.69;76.83;98995.00;4825696;29;45480;-58
2022/06/25 04:26:14;;;;;;;;;3.25;3.00;;;;;18.70;76.58;98994.91;4824846;29;46296;-58
2022/06/25 04:31:24;;;;;;;;;3.20;2.00;;;;;18.73;76.36;98991.16;4825893;29;45354;-58
2022/06/25 04:33:49;;;;;;;;;2.00;2.00;;;;;18.76;76.46;98990.94;4825440;29;45598;-58
2022/06/25 04:36:14;;;;;;;;;3.00;2.25;;;;;18.77;76.79;98988.09;4825755;29;46268;-58
2022/06/25 04:38:40;;;;;;;;;5.00;3.00;;;;;18.79;76.14;98985.31;4825239;29;45490;-58
2022/06/25 04:41:05;;;;;;;;;4.00;4.00;;;;;18.79;76.30;98982.66;4825512;29;45477;-58
2022/06/25 04:43:31;;;;;;;;;2.50;2.50;;;;;18.83;76.30;98981.47;4825056;29;45407;-58
2022/06/25 04:45:56;;;;;;;;;2.50;2.50;;;;;18.89;75.68;98982.81;4825546;29;46754;-58
2022/06/25 04:48:21;;;;;;;;;2.50;2.50;;;;;18.91;75.80;98980.88;4825462;29;45475;-58
2022/06/25 04:50:47;;;;;;;;;2.50;2.50;;;;;18.95;75.70;98977.00;4825321;29;45557;-58
2022/06/25 04:53:13;;;;;;;;;2.25;2.25;;;;;18.97;75.21;98980.41;4825314;29;45501;-58
2022/06/25 04:55:38;;;;;;;;;5.40;3.60;;;;;18.99;75.65;98976.66;4824775;29;45409;-58
2022/06/25 04:58:04;;;;;;;;;2.25;2.25;;;;;19.01;75.70;98979.22;4824880;29;45423;-58
2022/06/25 05:00:29;;;;;;;;;3.00;3.00;;;;;19.01;75.53;98981.88;4825070;29;45360;-58
2022/06/25 05:02:54;;;;;;;;;4.00;4.00;;;;;19.03;75.41;98982.63;4825020;29;45410;-58
2022/06/25 05:05:20;;;;;;;;;3.50;3.50;;;;;19.03;75.54;98985.28;4825195;29;45688;-58
2022/06/25 05:07:45;;;;;;;;;4.00;4.00;;;;;19.05;75.51;98986.03;4825150;29;45185;-58
2022/06/25 05:10:11;;;;;;;;;4.75;3.00;;;;;19.05;75.86;98984.22;4824871;29;45321;-58
2022/06/25 05:15:21;;;;;;;;;4.00;3.60;;;;;19.07;75.78;98986.75;4824529;29;45836;-58
2022/06/25 05:17:47;;;;;;;;;3.80;3.00;;;;;19.05;75.47;98978.84;4824848;29;45246;-58
2022/06/25 05:20:12;;;;;;;;;3.50;3.50;;;;;19.05;75.81;98984.22;4824964;29;45379;-58
2022/06/25 05:22:37;;;;;;;;;5.00;2.75;;;;;19.04;75.83;98982.50;4824795;29;45464;-58
2022/06/25 05:25:03;;;;;;;;;2.25;2.25;;;;;19.07;75.50;98984.94;4824562;29;47447;-58
2022/06/25 05:27:29;;;;;;;;;4.75;3.75;;;;;19.07;75.50;98979.59;4824935;29;45388;-58
2022/06/25 05:29:54;;;;;;;;;4.00;4.00;;;;;19.08;75.78;98980.44;4824797;29;45696;-58
2022/06/25 05:32:19;;;;;;;;;5.00;4.00;;;;;19.12;75.44;98979.22;4824553;29;45547;-58
2022/06/25 05:34:45;;;;;;;;;4.00;3.00;;;;;19.16;75.01;98975.34;4824450;29;45461;-58
2022/06/25 05:37:11;;;;;;;;;3.00;3.00;;;;;19.22;75.29;98979.38;4824240;29;45326;-58
2022/06/25 05:39:36;;;;;;;;;4.60;4.60;;;;;19.27;74.89;98980.69;4824489;29;45314;-59
2022/06/25 05:42:03;;;;;;;;;3.25;3.25;;;;;19.30;74.41;98980.47;4824513;29;45511;-58
2022/06/25 05:44:29;;;;;;;;;2.00;2.00;;;;;19.32;74.35;98983.03;4824551;29;45382;-58
2022/06/25 05:46:54;;;;;;;;;3.75;3.75;;;;;19.36;74.05;98979.16;4824295;29;45461;-58
2022/06/25 05:49:19;;;;;;;;;3.00;3.00;;;;;19.42;74.11;98978.69;4824030;29;45371;-61
2022/06/25 05:51:45;;;;;;;;;2.00;2.00;;;;;19.47;73.88;98981.81;4824355;29;45583;-61
2022/06/25 05:54:10;;;;;;;;;2.25;2.25;;;;;19.50;73.25;98974.44;4823855;29;46136;-61
2022/06/25 05:56:36;;;;;;;;;1.25;1.25;;;;;19.58;73.14;98981.03;4822938;29;45389;-61
2022/06/25 05:59:01;;;;;;;;;2.50;2.50;;;;;19.61;72.66;98973.59;4807310;29;45419;-61
2022/06/25 06:01:26;;;;;;;;;3.75;2.75;;;;;19.62;72.74;98979.78;4807561;29;45555;-61
2022/06/25 06:03:52;;;;;;;;;4.00;3.00;;;;;19.63;72.53;98981.50;4824339;29;46228;-61
2022/06/25 06:06:17;;;;;;;;;3.25;3.00;;;;;19.67;72.00;98974.94;4823935;29;45396;-61
2022/06/25 06:08:42;;;;;;;;;4.00;3.75;;;;;19.70;71.86;98974.69;4824127;29;45299;-61
2022/06/25 06:11:08;;;;;;;;;2.50;2.50;;;;;19.75;71.97;98977.84;4823643;29;45353;-61
2022/06/25 06:13:33;;;;;;;;;2.00;2.00;;;;;19.80;71.86;98971.16;4823761;29;46288;-61
2022/06/25 06:15:58;;;;;;;;;2.00;2.00;;;;;19.84;71.06;98972.59;4824020;29;45424;-61
2022/06/25 06:18:24;;;;;;;;;4.00;3.00;;;;;19.90;71.23;98970.41;4823917;29;45419;-61
2022/06/25 06:20:49;;;;;;;;;1.50;1.50;;;;;19.94;71.03;98969.22;4823556;29;45468;-61
2022/06/25 06:23:14;;;;;;;;;2.50;1.50;;;;;20.00;71.27;98974.03;4823270;29;45344;-61
2022/06/25 06:25:40;;;;;;;;;3.00;3.00;;;;;20.05;70.90;98966.50;4823430;29;45568;-61
2022/06/25 06:28:05;;;;;;;;;2.75;2.75;;;;;20.10;70.79;98965.16;4823587;29;45917;-61
2022/06/25 06:30:31;;;;;;;;;2.00;2.00;;;;;20.16;70.90;98963.78;4823929;29;45446;-61
2022/06/25 06:32:56;;;;;;;;;3.00;3.00;;;;;20.22;70.16;98960.63;4823631;29;45441;-61
2022/06/25 06:35:22;;;;;;;;;3.00;3.00;;;;;20.27;70.14;98961.09;4823684;29;45443;-61
2022/06/25 06:37:47;;;;;;;;;3.25;2.00;;;;;20.33;69.74;98959.72;4823011;29;45970;-61
2022/06/25 06:40:12;;;;;;;;;3.00;3.00;;;;;20.38;69.41;98961.09;4823277;29;45397;-61
2022/06/25 06:42:38;;;;;;;;;3.50;3.50;;;;;20.44;69.37;98957.06;4823543;29;46435;-61
2022/06/25 06:45:04;;;;;;;;;3.75;3.00;;;;;20.47;69.67;98963.00;4823740;29;45418;-62
2022/06/25 06:47:29;;;;;;;;;7.00;4.25;;;;;20.52;68.98;98958.09;4823649;29;45312;-61
2022/06/25 06:49:55;;;;;;;;;5.25;4.25;;;;;20.57;69.00;98957.72;4823444;29;45374;-61
2022/06/25 06:52:20;;;;;;;;;3.75;2.00;;;;;20.64;68.52;98963.41;4823085;29;45448;-61
2022/06/25 06:54:46;;;;;;;;;4.00;3.75;;;;;20.68;68.38;98967.53;4823008;29;45424;-61
2022/06/25 06:57:12;;;;;;;;;4.00;4.00;;;;;20.74;68.07;98961.66;4823298;29;45319;-61
2022/06/25 06:59:37;;;;;;;;;3.00;3.00;;;;;20.80;67.92;98953.09;4823043;29;45332;-61
2022/06/25 07:02:04;;;;;;;;;2.00;2.00;;;;;20.84;67.49;98951.88;4806179;29;46617;-61
2022/06/25 07:04:29;;;;;;;;;2.00;1.00;;;;;20.89;66.79;98949.66;4821474;29;45446;-61
2022/06/25 07:06:54;;;;;;;;;3.00;3.00;;;;;20.95;67.31;98949.09;4825035;29;45445;-61
2022/06/25 07:09:20;;;;;;;;;2.00;2.00;;;;;21.02;67.00;98944.09;4826104;29;45473;-61
2022/06/25 07:11:45;;;;;;;;;2.00;2.00;;;;;21.07;67.08;98953.44;4825972;29;45992;-61
2022/06/25 07:14:13;;;;;;;;;3.00;3.00;;;;;21.12;67.17;98939.63;4825952;29;45525;-61
2022/06/25 07:16:39;;;;;;;;;2.00;2.00;;;;;21.16;67.07;98941.91;4826300;29;45476;-61
2022/06/25 07:19:05;;;;;;;;;2.80;2.80;;;;;21.22;66.34;98929.84;4826515;29;45859;-61
2022/06/25 07:21:30;;;;;;;;;2.75;2.75;;;;;21.29;66.11;98938.19;4826234;29;46155;-61
2022/06/25 07:23:56;;;;;;;;;2.50;2.25;;;;;21.34;66.09;98936.81;4826167;29;45361;-61
2022/06/25 07:26:22;;;;;;;;;2.00;2.00;;;;;21.42;65.70;98937.00;4825781;29;45441;-61
2022/06/25 07:28:48;;;;;;;;;5.00;2.00;;;;;21.50;65.56;98936.31;4825874;29;45353;-61
2022/06/25 07:31:14;;;;;;;;;1.00;1.00;;;;;21.56;65.32;98930.44;4826074;29;45482;-61
2022/06/25 07:33:39;;;;;;;;;4.00;2.50;;;;;21.62;64.58;98926.38;4826242;29;45489;-61
2022/06/25 07:36:06;;;;;;;;;2.00;2.00;;;;;21.68;64.46;98923.13;4826327;29;45433;-61
2022/06/25 07:38:33;;;;;;;;;3.00;3.00;;;;;21.74;64.24;98915.38;4825502;29;45327;-61
2022/06/25 07:40:59;;;;;;;;;3.20;2.00;;;;;21.83;63.69;98917.22;4824458;29;48130;-61
2022/06/25 07:43:27;;;;;;;;;2.00;2.00;;;;;21.91;63.93;98916.56;4826001;29;45464;-61
2022/06/25 07:45:53;;;;;;;;;2.60;2.60;;;;;21.98;63.47;98922.19;4825744;29;45330;-59
2022/06/25 07:48:18;;;;;;;;;2.00;2.00;;;;;22.05;62.58;98916.19;4825119;29;45382;-58
2022/06/25 07:53:28;;;;;;;;;1.80;1.80;;;;;22.22;61.60;98914.66;4825903;29;45380;-58
2022/06/25 07:55:53;;;;;;;;;2.75;2.25;;;;;22.27;61.37;98907.88;4808975;29;45564;-58
2022/06/25 07:58:19;;;;;;;;;2.00;2.00;;;;;22.32;60.64;98904.75;4825175;29;45526;-59
2022/06/25 08:00:44;;;;;;;;;2.75;2.00;;;;;22.35;60.26;98906.31;4825247;29;45526;-58
2022/06/25 08:03:10;;;;;;;;;2.00;2.00;;;;;22.38;60.25;98901.50;4825224;29;45463;-58
2022/06/25 08:05:35;;;;;;;;;2.00;2.00;;;;;22.39;59.43;98897.84;4824282;29;45455;-61
2022/06/25 08:08:00;;;;;;;;;3.50;3.50;;;;;22.38;59.60;98893.47;4825417;29;45473;-61
2022/06/25 08:10:26;;;;;;;;;3.00;3.00;;;;;22.43;59.05;98893.91;4825235;29;46426;-61
2022/06/25 08:12:51;;;;;;;;;4.00;3.50;;;;;22.49;59.31;98887.09;4825478;29;45476;-61
2022/06/25 08:15:19;;;;;;;;;2.00;2.00;;;;;22.57;59.20;98888.09;4825125;29;45522;-61
2022/06/25 08:17:45;;;;;;;;;3.00;3.00;;;;;22.63;59.30;98884.81;4824780;29;45725;-61
2022/06/25 08:20:11;;;;;;;;;4.00;3.00;;;;;22.72;59.86;98876.88;4825221;29;45369;-63
2022/06/25 08:22:37;;;;;;;;;3.00;3.00;;;;;22.78;59.51;98876.34;4808769;29;45771;-62
2022/06/25 08:25:04;;;;;;;;;4.00;4.00;;;;;22.83;59.48;98877.59;4824829;29;45395;-60
2022/06/25 08:27:31;;;;;;;;;3.00;3.00;;;;;22.88;59.68;98872.63;4825504;29;45617;-59
2022/06/25 08:29:57;;;;;;;;;2.00;2.00;;;;;22.90;59.32;98869.81;4825460;29;46178;-58
2022/06/25 08:32:22;;;;;;;;;3.00;3.00;;;;;22.94;59.74;98865.84;4824909;29;45473;-58
2022/06/25 08:34:48;;;;;;;;;2.75;2.75;;;;;23.01;59.75;98866.94;4825615;29;45312;-58
2022/06/25 08:37:13;;;;;;;;;3.50;3.00;;;;;23.07;59.04;98863.66;4825025;29;45407;-61
2022/06/25 08:39:39;;;;;;;;;4.00;4.00;;;;;23.14;58.92;98858.53;4824874;29;46382;-57
2022/06/25 08:42:05;;;;;;;;;4.00;4.00;;;;;23.19;58.82;98858.94;4825133;29;45432;-57
2022/06/25 08:44:31;;;;;;;;;2.00;2.00;;;;;23.27;58.77;98854.53;4825241;29;45341;-58
2022/06/25 08:46:58;;;;;;;;;3.00;2.60;;;;;23.36;58.71;98855.47;4825070;29;45348;-58
2022/06/25 08:49:24;;;;;;;;;2.20;1.80;;;;;23.45;57.92;98841.16;4824987;29;45648;-58
2022/06/25 08:51:52;;;;;;;;;2.00;2.00;;;;;23.55;57.55;98841.97;4824634;29;45400;-58
2022/06/25 08:54:19;;;;;;;;;2.80;2.80;;;;;23.63;57.87;98838.50;4824532;29;45492;-58
2022/06/25 08:56:46;;;;;;;;;2.80;2.80;;;;;23.69;57.65;98826.28;4824965;29;45397;-58
2022/06/25 08:59:12;;;;;;;;;6.40;4.20;;;;;23.74;57.21;98824.84;4824578;29;45517;-58
2022/06/25 09:01:38;;;;;;;;;5.75;5.75;;;;;23.81;56.56;98825.91;4824710;29;45453;-58
2022/06/25 09:04:04;;;;;;;;;4.00;4.00;;;;;23.89;56.48;98814.41;4807932;29;45423;-57
2022/06/25 09:06:29;;;;;;;;;3.60;2.80;;;;;23.96;56.03;98807.41;4824970;29;45263;-58
2022/06/25 09:09:15;;;;;;;;;4.50;4.00;;;;;24.03;55.42;98813.88;4824149;29;46582;-58
2022/06/25 09:12:05;;;;;;;;;3.00;3.00;;;;;24.09;54.80;98802.47;4824442;29;45419;-61
2022/06/25 09:14:32;;;;;;;;;3.40;2.00;;;;;24.16;55.00;98802.69;4824289;29;45381;-61
2022/06/25 09:16:59;;;;;;;;;4.60;3.40;;;;;24.22;54.76;98800.22;4824241;29;45351;-61
2022/06/25 09:19:30;;;;;;;;;4.00;4.00;;;;;24.31;54.66;98793.94;4824425;29;46320;-61
2022/06/25 09:21:57;;;;;;;;;2.20;2.20;;;;;24.41;54.35;98795.69;4824184;29;45327;-61
2022/06/25 09:24:23;;;;;;;;;12.00;12.00;;;;;24.50;54.18;98795.59;4823891;29;45373;-61
2022/06/25 09:26:52;;;;;;;;;2.50;2.50;;;;;24.57;53.31;98790.44;4824193;29;45548;-61
2022/06/25 09:29:18;;;;;;;;;3.20;3.20;;;;;24.66;52.75;98786.75;4823347;29;45561;-61
2022/06/25 09:31:43;;;;;;;;;3.00;3.00;;;;;24.71;52.60;98787.16;4823578;29;45457;-61
2022/06/25 09:34:09;;;;;;;;;4.00;4.00;;;;;24.81;52.18;98787.03;4824028;29;45992;-61
2022/06/25 09:36:39;;;;;;;;;3.00;3.00;;;;;24.87;52.19;98781.84;4823896;29;45311;-61
2022/06/25 09:39:04;;;;;;;;;3.00;3.00;;;;;24.98;52.68;98778.03;4824296;29;46433;-61
2022/06/25 09:41:50;;;;;;;;;2.00;2.00;;;;;25.10;51.70;98776.78;4823889;29;45373;-61
2022/06/25 09:44:18;;;;;;;;;2.60;2.60;;;;;25.19;51.83;98772.25;4824250;29;45499;-61
2022/06/25 09:46:58;;;;;;;;;1.80;1.80;;;;;25.27;51.15;98765.03;4823543;29;45335;-61
2022/06/25 09:49:25;;;;;;;;;2.40;2.40;;;;;25.34;50.70;98768.75;4824028;29;45427;-61
2022/06/25 09:52:03;;;;;;;;;2.00;2.00;;;;;25.42;50.67;98753.63;4823787;29;45459;-61
2022/06/25 09:54:29;;;;;;;;;2.40;2.40;;;;;25.50;50.99;98751.78;4823843;29;45397;-58
2022/06/25 09:56:55;;;;;;;;;3.25;3.25;;;;;25.62;50.07;98750.50;4824102;29;45474;-58
2022/06/25 09:59:26;;;;;;;;;2.00;2.00;;;;;25.75;50.51;98749.16;4823553;29;45510;-58
2022/06/25 10:01:52;;;;;;;;;4.00;4.00;;;;;25.88;49.69;98755.75;4824109;29;45420;-58
2022/06/25 10:04:20;;;;;;;;;3.80;3.60;;;;;25.99;49.85;98747.31;4823401;29;45504;-59
2022/06/25 10:06:48;;;;;;;;;3.00;3.00;;;;;26.15;49.45;98742.91;4823896;29;45412;-58
2022/06/25 10:09:15;;;;;;;;;3.80;3.20;;;;;26.29;49.42;98743.13;4823434;29;46226;-58
2022/06/25 10:11:40;;;;;;;;;2.80;2.80;;;;;26.44;49.16;98731.63;4823697;29;45488;-58
2022/06/25 10:14:06;;;;;;;;;3.50;2.25;;;;;26.54;47.78;98727.72;4823484;29;45407;-62
2022/06/25 10:16:33;;;;;;;;;3.00;3.00;;;;;26.58;46.70;98731.75;4823471;29;45431;-61
2022/06/25 10:19:00;;;;;;;;;2.80;2.80;;;;;26.59;47.62;98729.91;4823203;29;46573;-61
2022/06/25 10:21:26;;;;;;;;;2.80;2.80;;;;;26.66;46.63;98726.31;4823051;29;45431;-61
2022/06/25 10:23:57;;;;;;;;;4.00;3.00;;;;;26.70;46.91;98735.78;4823202;29;45432;-61
2022/06/25 10:26:24;;;;;;;;;3.60;3.40;;;;;26.75;46.43;98725.28;4823136;29;45461;-61
2022/06/25 10:28:50;;;;;;;;;2.60;2.60;;;;;26.81;47.19;98726.47;4823575;29;46407;-61
2022/06/25 10:31:17;;;;;;;;;2.80;2.80;;;;;26.91;46.95;98720.84;4823767;29;45376;-61
2022/06/25 10:33:59;;;;;;;;;2.60;2.60;;;;;27.02;46.08;98725.88;4823715;29;45405;-61
2022/06/25 10:36:45;;;;;;;;;3.60;3.60;;;;;27.08;46.24;98719.78;4823495;29;45436;-61
2022/06/25 10:39:22;;;;;;;;;2.40;2.40;;;;;27.10;45.08;98715.03;4823249;29;45504;-61
2022/06/25 10:44:53;;;;;;;;;6.20;4.80;;;;;27.12;44.25;98709.47;4826672;29;45396;-61
2022/06/25 10:47:18;;;;;;;;;3.00;3.00;;;;;27.06;45.50;98703.72;4826878;29;45554;-61
2022/06/25 10:49:44;;;;;;;;;3.00;3.00;;;;;27.02;45.82;98702.38;4826504;29;45439;-61
2022/06/25 10:52:09;;;;;;;;;4.75;4.00;;;;;26.92;45.88;98690.06;4826844;29;45257;-61
2022/06/25 10:54:37;;;;;;;;;3.25;3.25;;;;;26.86;45.25;98688.88;4825996;29;45303;-58
2022/06/25 10:57:04;;;;;;;;;1.80;1.80;;;;;26.80;44.39;98678.78;4825868;29;45568;-58
2022/06/25 10:59:34;;;;;;;;;4.00;3.20;;;;;26.79;46.25;98682.50;4826095;29;46660;-58
2022/06/25 11:02:02;;;;;;;;;2.80;2.80;;;;;26.83;46.58;98680.28;4826549;29;45303;-57
2022/06/25 11:04:30;;;;;;;;;1.80;1.80;;;;;26.85;45.99;98680.94;4824292;29;45476;-57
2022/06/25 11:07:13;;;;;;;;;3.80;3.80;;;;;26.86;46.01;98688.88;4826458;29;45207;-58
2022/06/25 11:09:50;;;;;;;;;3.40;3.40;;;;;26.89;46.25;98685.00;4825751;29;46429;-59
2022/06/25 11:12:17;;;;;;;;;3.80;3.80;;;;;26.92;44.51;98680.09;4826036;29;45361;-58
2022/06/25 11:14:42;;;;;;;;;3.80;3.80;;;;;27.03;46.83;98666.19;4825991;29;45472;-58
2022/06/25 11:17:09;;;;;;;;;4.50;4.50;;;;;27.15;46.73;98674.75;4825997;29;45400;-58
2022/06/25 11:19:35;;;;;;;;;4.80;3.80;;;;;27.24;45.72;98676.41;4826155;29;45408;-58
2022/06/25 11:22:02;;;;;;;;;3.00;3.00;;;;;27.25;44.70;98678.09;4826139;29;45397;-61
2022/06/25 11:24:28;;;;;;;;;2.80;2.80;;;;;27.28;44.88;98664.19;4825942;29;45538;-58
2022/06/25 11:29:49;;;;;;;;;2.80;2.80;;;;;27.49;44.35;98673.50;4826115;29;45400;-61
2022/06/25 11:32:25;;;;;;;;;2.60;2.60;;;;;27.53;42.13;98666.72;4826028;29;45450;-59
2022/06/25 11:34:59;;;;;;;;;2.20;2.20;;;;;27.50;42.36;98661.66;4824410;29;45470;-58
2022/06/25 11:37:25;;;;;;;;;1.60;1.60;;;;;27.46;42.93;98653.09;4825922;29;45335;-58
2022/06/25 11:39:51;;;;;;;;;3.60;1.60;;;;;27.47;42.27;98656.63;4825056;29;45556;-58
2022/06/25 11:42:18;;;;;;;;;2.00;2.00;;;;;27.48;43.04;98659.16;4826006;29;45410;-58
2022/06/25 11:44:55;;;;;;;;;2.40;2.40;;;;;27.54;42.55;98654.88;4826081;29;45364;-58